sensor_id;sensor_type;location;lat;lon;timestamp;P1;durP1;ratioP1;P2;durP2;ratioP2
15603;SDS011;7902;49.042;9.092;2024-03-08T00:01:09;29.30;;;11.17;;
15603;SDS011;7902;49.042;9.092;2024-03-08T00:03:36;30.63;;;11.90;;
15603;SDS011;7902;49.042;9.092;2024-03-08T00:06:02;25.73;;;10.40;;
15603;SDS011;7902;49.042;9.092;2024-03-08T00:08:28;31.47;;;11.43;;
15603;SDS011;7902;49.042;9.092;2024-03-08T00:10:54;28.20;;;11.00;;
15603;SDS011;7902;49.042;9.092;2024-03-08T00:13:20;29.07;;;11.83;;
15603;SDS011;7902;49.042;9.092;2024-03-08T00:15:46;30.23;;;11.17;;
15603;SDS011;7902;49.042;9.092;2024-03-08T00:18:12;27.83;;;10.30;;
15603;SDS011;7902;49.042;9.092;2024-03-08T00:20:38;26.00;;;9.93;;
15603;SDS011;7902;49.042;9.092;2024-03-08T00:23:04;28.90;;;11.50;;
15603;SDS011;7902;49.042;9.092;2024-03-08T00:25:30;29.23;;;11.53;;
15603;SDS011;7902;49.042;9.092;2024-03-08T00:27:56;32.00;;;11.30;;
15603;SDS011;7902;49.042;9.092;2024-03-08T00:30:22;27.07;;;11.23;;
15603;SDS011;7902;49.042;9.092;2024-03-08T00:32:49;32.63;;;11.17;;
15603;SDS011;7902;49.042;9.092;2024-03-08T00:35:15;30.10;;;12.50;;
15603;SDS011;7902;49.042;9.092;2024-03-08T00:37:41;31.63;;;11.07;;
15603;SDS011;7902;49.042;9.092;2024-03-08T00:40:12;30.43;;;11.93;;
15603;SDS011;7902;49.042;9.092;2024-03-08T00:42:38;28.00;;;10.30;;
15603;SDS011;7902;49.042;9.092;2024-03-08T00:45:05;26.43;;;10.57;;
15603;SDS011;7902;49.042;9.092;2024-03-08T00:47:31;26.93;;;11.03;;
15603;SDS011;7902;49.042;9.092;2024-03-08T00:49:57;30.80;;;11.30;;
15603;SDS011;7902;49.042;9.092;2024-03-08T00:52:23;32.97;;;11.30;;
15603;SDS011;7902;49.042;9.092;2024-03-08T00:54:52;24.20;;;9.57;;
15603;SDS011;7902;49.042;9.092;2024-03-08T00:57:18;29.57;;;12.20;;
15603;SDS011;7902;49.042;9.092;2024-03-08T00:59:44;29.53;;;11.40;;
15603;SDS011;7902;49.042;9.092;2024-03-08T01:02:10;30.40;;;12.00;;
15603;SDS011;7902;49.042;9.092;2024-03-08T01:04:36;35.33;;;14.83;;
15603;SDS011;7902;49.042;9.092;2024-03-08T01:07:02;34.20;;;13.50;;
15603;SDS011;7902;49.042;9.092;2024-03-08T01:09:28;26.53;;;11.50;;
15603;SDS011;7902;49.042;9.092;2024-03-08T01:11:54;26.70;;;11.20;;
15603;SDS011;7902;49.042;9.092;2024-03-08T01:14:21;31.60;;;13.20;;
15603;SDS011;7902;49.042;9.092;2024-03-08T01:16:48;28.73;;;11.50;;
15603;SDS011;7902;49.042;9.092;2024-03-08T01:19:14;35.27;;;10.23;;
15603;SDS011;7902;49.042;9.092;2024-03-08T01:21:41;27.83;;;12.00;;
15603;SDS011;7902;49.042;9.092;2024-03-08T01:24:07;26.20;;;10.60;;
15603;SDS011;7902;49.042;9.092;2024-03-08T01:26:33;34.33;;;11.67;;
15603;SDS011;7902;49.042;9.092;2024-03-08T01:29:02;27.10;;;10.07;;
15603;SDS011;7902;49.042;9.092;2024-03-08T01:31:29;27.37;;;11.40;;
15603;SDS011;7902;49.042;9.092;2024-03-08T01:33:56;26.83;;;11.30;;
15603;SDS011;7902;49.042;9.092;2024-03-08T01:36:22;26.87;;;10.47;;
15603;SDS011;7902;49.042;9.092;2024-03-08T01:38:49;26.30;;;10.27;;
15603;SDS011;7902;49.042;9.092;2024-03-08T01:41:15;28.00;;;11.83;;
15603;SDS011;7902;49.042;9.092;2024-03-08T01:43:43;25.70;;;11.03;;
15603;SDS011;7902;49.042;9.092;2024-03-08T01:46:14;27.90;;;12.07;;
15603;SDS011;7902;49.042;9.092;2024-03-08T01:48:44;25.77;;;11.13;;
15603;SDS011;7902;49.042;9.092;2024-03-08T01:51:10;24.80;;;10.67;;
15603;SDS011;7902;49.042;9.092;2024-03-08T01:53:37;24.40;;;9.90;;
15603;SDS011;7902;49.042;9.092;2024-03-08T01:56:04;31.10;;;12.20;;
15603;SDS011;7902;49.042;9.092;2024-03-08T01:58:32;27.07;;;11.57;;
15603;SDS011;7902;49.042;9.092;2024-03-08T02:00:58;26.47;;;10.60;;
15603;SDS011;7902;49.042;9.092;2024-03-08T02:03:25;31.93;;;10.10;;
15603;SDS011;7902;49.042;9.092;2024-03-08T02:05:51;29.00;;;11.57;;
15603;SDS011;7902;49.042;9.092;2024-03-08T02:08:17;27.03;;;10.40;;
15603;SDS011;7902;49.042;9.092;2024-03-08T02:10:44;23.47;;;9.43;;
15603;SDS011;7902;49.042;9.092;2024-03-08T02:13:10;25.40;;;10.00;;
15603;SDS011;7902;49.042;9.092;2024-03-08T02:15:53;30.43;;;11.37;;
15603;SDS011;7902;49.042;9.092;2024-03-08T02:18:24;27.33;;;11.00;;
15603;SDS011;7902;49.042;9.092;2024-03-08T02:20:51;26.37;;;10.07;;
15603;SDS011;7902;49.042;9.092;2024-03-08T02:23:21;30.67;;;11.33;;
15603;SDS011;7902;49.042;9.092;2024-03-08T02:25:47;27.47;;;10.97;;
15603;SDS011;7902;49.042;9.092;2024-03-08T02:28:13;28.47;;;10.10;;
15603;SDS011;7902;49.042;9.092;2024-03-08T02:30:40;29.20;;;11.30;;
15603;SDS011;7902;49.042;9.092;2024-03-08T02:33:07;25.90;;;10.80;;
15603;SDS011;7902;49.042;9.092;2024-03-08T02:35:34;27.30;;;10.63;;
15603;SDS011;7902;49.042;9.092;2024-03-08T02:38:01;27.90;;;11.03;;
15603;SDS011;7902;49.042;9.092;2024-03-08T02:40:29;26.20;;;10.37;;
15603;SDS011;7902;49.042;9.092;2024-03-08T02:42:55;24.87;;;10.10;;
15603;SDS011;7902;49.042;9.092;2024-03-08T02:45:21;25.30;;;10.30;;
15603;SDS011;7902;49.042;9.092;2024-03-08T02:47:47;27.03;;;11.43;;
15603;SDS011;7902;49.042;9.092;2024-03-08T02:50:15;26.37;;;10.90;;
15603;SDS011;7902;49.042;9.092;2024-03-08T02:52:44;30.63;;;10.40;;
15603;SDS011;7902;49.042;9.092;2024-03-08T02:55:12;33.23;;;11.60;;
15603;SDS011;7902;49.042;9.092;2024-03-08T02:57:40;23.97;;;9.10;;
15603;SDS011;7902;49.042;9.092;2024-03-08T03:00:07;27.10;;;10.60;;
15603;SDS011;7902;49.042;9.092;2024-03-08T03:02:36;26.97;;;11.17;;
15603;SDS011;7902;49.042;9.092;2024-03-08T03:05:03;24.27;;;9.30;;
15603;SDS011;7902;49.042;9.092;2024-03-08T03:07:32;25.80;;;10.03;;
15603;SDS011;7902;49.042;9.092;2024-03-08T03:10:01;26.43;;;9.90;;
15603;SDS011;7902;49.042;9.092;2024-03-08T03:12:28;26.13;;;10.60;;
15603;SDS011;7902;49.042;9.092;2024-03-08T03:14:54;27.67;;;10.90;;
15603;SDS011;7902;49.042;9.092;2024-03-08T03:17:25;28.10;;;10.97;;
15603;SDS011;7902;49.042;9.092;2024-03-08T03:19:51;24.00;;;9.33;;
15603;SDS011;7902;49.042;9.092;2024-03-08T03:22:18;26.90;;;9.93;;
15603;SDS011;7902;49.042;9.092;2024-03-08T03:24:44;32.13;;;11.47;;
15603;SDS011;7902;49.042;9.092;2024-03-08T03:27:14;27.13;;;10.63;;
15603;SDS011;7902;49.042;9.092;2024-03-08T03:29:41;27.03;;;10.23;;
15603;SDS011;7902;49.042;9.092;2024-03-08T03:32:11;27.93;;;10.90;;
15603;SDS011;7902;49.042;9.092;2024-03-08T03:34:38;30.37;;;10.60;;
15603;SDS011;7902;49.042;9.092;2024-03-08T03:37:04;26.77;;;11.37;;
15603;SDS011;7902;49.042;9.092;2024-03-08T03:39:32;24.53;;;9.67;;
15603;SDS011;7902;49.042;9.092;2024-03-08T03:42:00;30.03;;;10.90;;
15603;SDS011;7902;49.042;9.092;2024-03-08T03:44:28;28.10;;;10.70;;
15603;SDS011;7902;49.042;9.092;2024-03-08T03:46:54;27.27;;;10.30;;
15603;SDS011;7902;49.042;9.092;2024-03-08T03:49:20;29.70;;;11.43;;
15603;SDS011;7902;49.042;9.092;2024-03-08T03:51:46;26.63;;;10.33;;
15603;SDS011;7902;49.042;9.092;2024-03-08T03:54:12;26.03;;;10.13;;
15603;SDS011;7902;49.042;9.092;2024-03-08T03:56:38;26.33;;;10.90;;
15603;SDS011;7902;49.042;9.092;2024-03-08T03:59:05;26.97;;;11.47;;
15603;SDS011;7902;49.042;9.092;2024-03-08T04:01:32;27.27;;;11.27;;
15603;SDS011;7902;49.042;9.092;2024-03-08T04:03:59;27.53;;;10.40;;
15603;SDS011;7902;49.042;9.092;2024-03-08T04:06:25;28.60;;;11.00;;
15603;SDS011;7902;49.042;9.092;2024-03-08T04:08:51;25.20;;;10.77;;
15603;SDS011;7902;49.042;9.092;2024-03-08T04:11:17;28.27;;;11.17;;
15603;SDS011;7902;49.042;9.092;2024-03-08T04:13:43;26.83;;;11.27;;
15603;SDS011;7902;49.042;9.092;2024-03-08T04:16:09;28.60;;;11.60;;
15603;SDS011;7902;49.042;9.092;2024-03-08T04:18:37;26.90;;;10.80;;
15603;SDS011;7902;49.042;9.092;2024-03-08T04:21:06;30.00;;;10.93;;
15603;SDS011;7902;49.042;9.092;2024-03-08T04:23:33;26.93;;;11.20;;
15603;SDS011;7902;49.042;9.092;2024-03-08T04:26:01;29.83;;;10.43;;
15603;SDS011;7902;49.042;9.092;2024-03-08T04:28:32;26.70;;;10.03;;
15603;SDS011;7902;49.042;9.092;2024-03-08T04:30:58;28.33;;;10.77;;
15603;SDS011;7902;49.042;9.092;2024-03-08T04:33:26;31.87;;;12.10;;
15603;SDS011;7902;49.042;9.092;2024-03-08T04:35:52;27.83;;;11.00;;
15603;SDS011;7902;49.042;9.092;2024-03-08T04:38:18;32.23;;;12.33;;
15603;SDS011;7902;49.042;9.092;2024-03-08T04:40:45;28.17;;;11.40;;
15603;SDS011;7902;49.042;9.092;2024-03-08T04:43:10;29.73;;;10.70;;
15603;SDS011;7902;49.042;9.092;2024-03-08T04:45:36;25.73;;;10.27;;
15603;SDS011;7902;49.042;9.092;2024-03-08T04:48:02;28.07;;;10.90;;
15603;SDS011;7902;49.042;9.092;2024-03-08T04:50:29;27.03;;;11.90;;
15603;SDS011;7902;49.042;9.092;2024-03-08T04:52:55;30.77;;;12.17;;
15603;SDS011;7902;49.042;9.092;2024-03-08T04:55:21;29.23;;;12.80;;
15603;SDS011;7902;49.042;9.092;2024-03-08T04:57:47;27.80;;;11.73;;
15603;SDS011;7902;49.042;9.092;2024-03-08T05:00:14;30.67;;;11.93;;
15603;SDS011;7902;49.042;9.092;2024-03-08T05:02:41;47.43;;;12.13;;
15603;SDS011;7902;49.042;9.092;2024-03-08T05:05:07;31.33;;;13.57;;
15603;SDS011;7902;49.042;9.092;2024-03-08T05:07:36;54.43;;;12.57;;
15603;SDS011;7902;49.042;9.092;2024-03-08T05:10:02;30.43;;;10.87;;
15603;SDS011;7902;49.042;9.092;2024-03-08T05:12:29;31.47;;;12.57;;
15603;SDS011;7902;49.042;9.092;2024-03-08T05:14:55;27.57;;;11.40;;
15603;SDS011;7902;49.042;9.092;2024-03-08T05:17:21;30.93;;;11.50;;
15603;SDS011;7902;49.042;9.092;2024-03-08T05:19:46;27.80;;;11.70;;
15603;SDS011;7902;49.042;9.092;2024-03-08T05:22:12;30.77;;;12.20;;
15603;SDS011;7902;49.042;9.092;2024-03-08T05:24:39;35.53;;;12.73;;
15603;SDS011;7902;49.042;9.092;2024-03-08T05:27:05;34.70;;;12.10;;
15603;SDS011;7902;49.042;9.092;2024-03-08T05:29:30;29.33;;;12.27;;
15603;SDS011;7902;49.042;9.092;2024-03-08T05:31:56;36.13;;;12.60;;
15603;SDS011;7902;49.042;9.092;2024-03-08T05:34:23;31.53;;;12.70;;
15603;SDS011;7902;49.042;9.092;2024-03-08T05:36:50;31.17;;;13.10;;
15603;SDS011;7902;49.042;9.092;2024-03-08T05:39:16;33.17;;;13.43;;
15603;SDS011;7902;49.042;9.092;2024-03-08T05:41:43;61.03;;;14.10;;
15603;SDS011;7902;49.042;9.092;2024-03-08T05:44:10;81.53;;;15.90;;
15603;SDS011;7902;49.042;9.092;2024-03-08T05:46:36;54.70;;;17.50;;
15603;SDS011;7902;49.042;9.092;2024-03-08T05:49:03;48.50;;;14.90;;
15603;SDS011;7902;49.042;9.092;2024-03-08T05:51:32;73.77;;;14.90;;
15603;SDS011;7902;49.042;9.092;2024-03-08T05:54:03;57.00;;;14.23;;
15603;SDS011;7902;49.042;9.092;2024-03-08T05:56:31;49.23;;;13.43;;
15603;SDS011;7902;49.042;9.092;2024-03-08T05:58:59;36.90;;;15.33;;
15603;SDS011;7902;49.042;9.092;2024-03-08T06:01:26;36.97;;;15.83;;
15603;SDS011;7902;49.042;9.092;2024-03-08T06:03:52;41.63;;;16.27;;
15603;SDS011;7902;49.042;9.092;2024-03-08T06:06:21;39.30;;;16.27;;
15603;SDS011;7902;49.042;9.092;2024-03-08T06:08:51;39.60;;;15.53;;
15603;SDS011;7902;49.042;9.092;2024-03-08T06:11:18;32.40;;;12.87;;
15603;SDS011;7902;49.042;9.092;2024-03-08T06:13:45;37.93;;;13.57;;
15603;SDS011;7902;49.042;9.092;2024-03-08T06:16:11;33.20;;;14.20;;
15603;SDS011;7902;49.042;9.092;2024-03-08T06:18:37;30.70;;;13.17;;
15603;SDS011;7902;49.042;9.092;2024-03-08T06:21:03;35.13;;;13.30;;
15603;SDS011;7902;49.042;9.092;2024-03-08T06:23:33;41.53;;;12.20;;
15603;SDS011;7902;49.042;9.092;2024-03-08T06:25:59;42.33;;;11.73;;
15603;SDS011;7902;49.042;9.092;2024-03-08T06:28:25;45.10;;;13.13;;
15603;SDS011;7902;49.042;9.092;2024-03-08T06:30:51;25.90;;;10.97;;
15603;SDS011;7902;49.042;9.092;2024-03-08T06:33:17;25.97;;;10.73;;
15603;SDS011;7902;49.042;9.092;2024-03-08T06:35:43;25.13;;;10.80;;
15603;SDS011;7902;49.042;9.092;2024-03-08T06:38:09;27.67;;;11.33;;
15603;SDS011;7902;49.042;9.092;2024-03-08T06:40:37;29.77;;;11.50;;
15603;SDS011;7902;49.042;9.092;2024-03-08T06:43:03;40.20;;;11.10;;
15603;SDS011;7902;49.042;9.092;2024-03-08T06:45:31;33.10;;;12.60;;
15603;SDS011;7902;49.042;9.092;2024-03-08T06:47:57;36.30;;;12.50;;
15603;SDS011;7902;49.042;9.092;2024-03-08T06:50:23;33.10;;;12.43;;
15603;SDS011;7902;49.042;9.092;2024-03-08T06:52:49;44.10;;;13.40;;
15603;SDS011;7902;49.042;9.092;2024-03-08T06:55:18;39.53;;;13.87;;
15603;SDS011;7902;49.042;9.092;2024-03-08T06:57:44;36.20;;;11.93;;
15603;SDS011;7902;49.042;9.092;2024-03-08T07:00:10;32.10;;;12.73;;
15603;SDS011;7902;49.042;9.092;2024-03-08T07:02:46;36.50;;;11.80;;
15603;SDS011;7902;49.042;9.092;2024-03-08T07:05:14;41.87;;;13.47;;
15603;SDS011;7902;49.042;9.092;2024-03-08T07:07:42;48.23;;;12.37;;
15603;SDS011;7902;49.042;9.092;2024-03-08T07:10:08;59.37;;;17.77;;
15603;SDS011;7902;49.042;9.092;2024-03-08T07:12:39;34.77;;;11.83;;
15603;SDS011;7902;49.042;9.092;2024-03-08T07:15:05;40.27;;;12.70;;
15603;SDS011;7902;49.042;9.092;2024-03-08T07:17:31;38.57;;;12.73;;
15603;SDS011;7902;49.042;9.092;2024-03-08T07:20:00;30.83;;;13.20;;
15603;SDS011;7902;49.042;9.092;2024-03-08T07:22:33;27.30;;;11.17;;
15603;SDS011;7902;49.042;9.092;2024-03-08T07:24:58;41.60;;;13.57;;
15603;SDS011;7902;49.042;9.092;2024-03-08T07:27:51;104.50;;;12.60;;
15603;SDS011;7902;49.042;9.092;2024-03-08T07:30:21;40.03;;;12.90;;
15603;SDS011;7902;49.042;9.092;2024-03-08T07:33:07;47.10;;;12.03;;
15603;SDS011;7902;49.042;9.092;2024-03-08T07:35:33;45.53;;;12.43;;
15603;SDS011;7902;49.042;9.092;2024-03-08T07:38:03;66.23;;;12.00;;
15603;SDS011;7902;49.042;9.092;2024-03-08T07:40:31;63.37;;;14.30;;
15603;SDS011;7902;49.042;9.092;2024-03-08T07:43:10;143.73;;;14.50;;
15603;SDS011;7902;49.042;9.092;2024-03-08T07:45:37;68.23;;;11.77;;
15603;SDS011;7902;49.042;9.092;2024-03-08T07:48:03;36.70;;;11.70;;
15603;SDS011;7902;49.042;9.092;2024-03-08T07:50:38;73.27;;;12.93;;
15603;SDS011;7902;49.042;9.092;2024-03-08T07:53:05;37.10;;;11.97;;
15603;SDS011;7902;49.042;9.092;2024-03-08T07:55:35;37.23;;;11.97;;
15603;SDS011;7902;49.042;9.092;2024-03-08T07:58:01;32.07;;;11.97;;
15603;SDS011;7902;49.042;9.092;2024-03-08T08:00:30;26.97;;;11.93;;
15603;SDS011;7902;49.042;9.092;2024-03-08T08:02:59;27.90;;;12.03;;
15603;SDS011;7902;49.042;9.092;2024-03-08T08:05:25;33.53;;;11.50;;
15603;SDS011;7902;49.042;9.092;2024-03-08T08:07:51;29.50;;;11.23;;
15603;SDS011;7902;49.042;9.092;2024-03-08T08:10:18;24.83;;;10.57;;
15603;SDS011;7902;49.042;9.092;2024-03-08T08:12:47;30.40;;;11.67;;
15603;SDS011;7902;49.042;9.092;2024-03-08T08:15:13;26.20;;;10.83;;
15603;SDS011;7902;49.042;9.092;2024-03-08T08:17:46;30.07;;;11.43;;
15603;SDS011;7902;49.042;9.092;2024-03-08T08:20:13;27.27;;;10.90;;
15603;SDS011;7902;49.042;9.092;2024-03-08T08:22:42;26.27;;;10.40;;
15603;SDS011;7902;49.042;9.092;2024-03-08T08:25:11;26.67;;;10.63;;
15603;SDS011;7902;49.042;9.092;2024-03-08T08:27:38;45.07;;;11.33;;
15603;SDS011;7902;49.042;9.092;2024-03-08T08:30:10;48.07;;;12.53;;
15603;SDS011;7902;49.042;9.092;2024-03-08T08:32:37;36.80;;;11.00;;
15603;SDS011;7902;49.042;9.092;2024-03-08T08:35:04;30.17;;;11.30;;
15603;SDS011;7902;49.042;9.092;2024-03-08T08:37:31;77.23;;;12.00;;
15603;SDS011;7902;49.042;9.092;2024-03-08T08:39:58;37.10;;;11.03;;
15603;SDS011;7902;49.042;9.092;2024-03-08T08:42:24;44.70;;;11.97;;
15603;SDS011;7902;49.042;9.092;2024-03-08T08:44:50;29.90;;;11.20;;
15603;SDS011;7902;49.042;9.092;2024-03-08T08:47:17;55.00;;;12.67;;
15603;SDS011;7902;49.042;9.092;2024-03-08T08:49:44;41.10;;;11.20;;
15603;SDS011;7902;49.042;9.092;2024-03-08T08:52:12;27.73;;;10.93;;
15603;SDS011;7902;49.042;9.092;2024-03-08T08:54:38;24.00;;;9.90;;
15603;SDS011;7902;49.042;9.092;2024-03-08T08:57:04;24.37;;;9.53;;
15603;SDS011;7902;49.042;9.092;2024-03-08T08:59:36;28.90;;;10.07;;
15603;SDS011;7902;49.042;9.092;2024-03-08T09:02:02;27.77;;;9.93;;
15603;SDS011;7902;49.042;9.092;2024-03-08T09:04:31;54.37;;;10.40;;
15603;SDS011;7902;49.042;9.092;2024-03-08T09:06:57;32.57;;;11.33;;
15603;SDS011;7902;49.042;9.092;2024-03-08T09:09:23;42.23;;;11.13;;
15603;SDS011;7902;49.042;9.092;2024-03-08T09:11:49;27.10;;;11.00;;
15603;SDS011;7902;49.042;9.092;2024-03-08T09:14:15;32.43;;;10.43;;
15603;SDS011;7902;49.042;9.092;2024-03-08T09:16:41;27.37;;;10.67;;
15603;SDS011;7902;49.042;9.092;2024-03-08T09:19:07;29.80;;;10.70;;
15603;SDS011;7902;49.042;9.092;2024-03-08T09:21:33;38.13;;;11.57;;
15603;SDS011;7902;49.042;9.092;2024-03-08T09:24:00;38.53;;;10.87;;
15603;SDS011;7902;49.042;9.092;2024-03-08T09:26:26;25.97;;;10.33;;
15603;SDS011;7902;49.042;9.092;2024-03-08T09:28:52;30.97;;;10.67;;
15603;SDS011;7902;49.042;9.092;2024-03-08T09:31:20;28.10;;;10.17;;
15603;SDS011;7902;49.042;9.092;2024-03-08T09:33:47;27.40;;;11.60;;
15603;SDS011;7902;49.042;9.092;2024-03-08T09:36:13;26.50;;;9.80;;
15603;SDS011;7902;49.042;9.092;2024-03-08T09:38:39;24.20;;;10.03;;
15603;SDS011;7902;49.042;9.092;2024-03-08T09:41:06;27.47;;;10.40;;
15603;SDS011;7902;49.042;9.092;2024-03-08T09:43:32;27.27;;;10.37;;
15603;SDS011;7902;49.042;9.092;2024-03-08T09:45:58;31.10;;;11.20;;
15603;SDS011;7902;49.042;9.092;2024-03-08T09:48:24;24.20;;;9.43;;
15603;SDS011;7902;49.042;9.092;2024-03-08T09:50:51;30.40;;;10.37;;
15603;SDS011;7902;49.042;9.092;2024-03-08T09:53:17;38.93;;;10.37;;
15603;SDS011;7902;49.042;9.092;2024-03-08T09:55:44;27.03;;;9.63;;
15603;SDS011;7902;49.042;9.092;2024-03-08T09:58:11;32.07;;;9.87;;
15603;SDS011;7902;49.042;9.092;2024-03-08T10:00:53;25.43;;;10.10;;
15603;SDS011;7902;49.042;9.092;2024-03-08T10:03:23;27.60;;;10.13;;
15603;SDS011;7902;49.042;9.092;2024-03-08T10:05:49;25.80;;;10.17;;
15603;SDS011;7902;49.042;9.092;2024-03-08T10:08:15;28.17;;;10.57;;
15603;SDS011;7902;49.042;9.092;2024-03-08T10:10:41;51.47;;;11.60;;
15603;SDS011;7902;49.042;9.092;2024-03-08T10:13:09;26.30;;;10.40;;
15603;SDS011;7902;49.042;9.092;2024-03-08T10:15:36;30.17;;;11.27;;
15603;SDS011;7902;49.042;9.092;2024-03-08T10:18:02;24.47;;;8.90;;
15603;SDS011;7902;49.042;9.092;2024-03-08T10:20:28;27.40;;;10.33;;
15603;SDS011;7902;49.042;9.092;2024-03-08T10:22:59;28.20;;;10.67;;
15603;SDS011;7902;49.042;9.092;2024-03-08T10:25:25;28.90;;;10.20;;
15603;SDS011;7902;49.042;9.092;2024-03-08T10:27:51;25.33;;;9.83;;
15603;SDS011;7902;49.042;9.092;2024-03-08T10:30:17;27.73;;;10.13;;
15603;SDS011;7902;49.042;9.092;2024-03-08T10:32:45;34.77;;;11.10;;
15603;SDS011;7902;49.042;9.092;2024-03-08T10:35:12;27.60;;;11.00;;
15603;SDS011;7902;49.042;9.092;2024-03-08T10:37:45;24.43;;;9.47;;
15603;SDS011;7902;49.042;9.092;2024-03-08T10:40:17;30.40;;;10.03;;
15603;SDS011;7902;49.042;9.092;2024-03-08T10:43:03;31.80;;;10.13;;
15603;SDS011;7902;49.042;9.092;2024-03-08T10:45:31;29.70;;;10.60;;
15603;SDS011;7902;49.042;9.092;2024-03-08T10:48:02;27.67;;;10.40;;
15603;SDS011;7902;49.042;9.092;2024-03-08T10:50:50;33.37;;;11.10;;
15603;SDS011;7902;49.042;9.092;2024-03-08T10:53:18;33.27;;;11.47;;
15603;SDS011;7902;49.042;9.092;2024-03-08T10:55:47;29.10;;;11.00;;
15603;SDS011;7902;49.042;9.092;2024-03-08T10:58:15;28.27;;;11.00;;
15603;SDS011;7902;49.042;9.092;2024-03-08T11:00:42;29.43;;;10.20;;
15603;SDS011;7902;49.042;9.092;2024-03-08T11:03:30;33.13;;;12.80;;
15603;SDS011;7902;49.042;9.092;2024-03-08T11:06:16;26.80;;;10.23;;
15603;SDS011;7902;49.042;9.092;2024-03-08T11:08:44;27.53;;;11.30;;
15603;SDS011;7902;49.042;9.092;2024-03-08T11:11:31;27.20;;;11.10;;
15603;SDS011;7902;49.042;9.092;2024-03-08T11:13:58;27.77;;;11.80;;
15603;SDS011;7902;49.042;9.092;2024-03-08T11:18:53;31.40;;;11.50;;
15603;SDS011;7902;49.042;9.092;2024-03-08T11:21:19;32.07;;;12.40;;
15603;SDS011;7902;49.042;9.092;2024-03-08T11:24:11;27.53;;;11.33;;
15603;SDS011;7902;49.042;9.092;2024-03-08T11:26:39;35.37;;;11.70;;
15603;SDS011;7902;49.042;9.092;2024-03-08T11:29:32;35.37;;;11.97;;
15603;SDS011;7902;49.042;9.092;2024-03-08T11:32:07;32.33;;;11.80;;
15603;SDS011;7902;49.042;9.092;2024-03-08T11:34:38;29.97;;;11.37;;
15603;SDS011;7902;49.042;9.092;2024-03-08T11:37:10;26.40;;;10.50;;
15603;SDS011;7902;49.042;9.092;2024-03-08T11:39:47;28.40;;;11.80;;
15603;SDS011;7902;49.042;9.092;2024-03-08T11:42:15;31.10;;;10.20;;
15603;SDS011;7902;49.042;9.092;2024-03-08T11:44:43;33.60;;;13.33;;
15603;SDS011;7902;49.042;9.092;2024-03-08T11:47:10;27.63;;;11.23;;
15603;SDS011;7902;49.042;9.092;2024-03-08T11:49:37;26.60;;;10.13;;
15603;SDS011;7902;49.042;9.092;2024-03-08T11:52:04;33.13;;;12.60;;
15603;SDS011;7902;49.042;9.092;2024-03-08T11:54:31;28.70;;;11.13;;
15603;SDS011;7902;49.042;9.092;2024-03-08T11:56:57;29.57;;;11.07;;
15603;SDS011;7902;49.042;9.092;2024-03-08T11:59:29;29.40;;;10.67;;
15603;SDS011;7902;49.042;9.092;2024-03-08T12:02:05;43.07;;;12.23;;
15603;SDS011;7902;49.042;9.092;2024-03-08T12:04:32;34.50;;;10.80;;
15603;SDS011;7902;49.042;9.092;2024-03-08T12:07:01;38.97;;;11.20;;
15603;SDS011;7902;49.042;9.092;2024-03-08T12:09:28;28.00;;;11.17;;
15603;SDS011;7902;49.042;9.092;2024-03-08T12:11:54;27.67;;;11.20;;
15603;SDS011;7902;49.042;9.092;2024-03-08T12:14:20;31.70;;;10.87;;
15603;SDS011;7902;49.042;9.092;2024-03-08T12:16:48;28.20;;;10.23;;
15603;SDS011;7902;49.042;9.092;2024-03-08T12:19:16;30.43;;;11.10;;
15603;SDS011;7902;49.042;9.092;2024-03-08T12:21:42;28.90;;;11.23;;
15603;SDS011;7902;49.042;9.092;2024-03-08T12:24:14;45.97;;;12.50;;
15603;SDS011;7902;49.042;9.092;2024-03-08T12:26:45;112.90;;;15.20;;
15603;SDS011;7902;49.042;9.092;2024-03-08T12:29:14;47.90;;;12.07;;
15603;SDS011;7902;49.042;9.092;2024-03-08T12:31:42;26.80;;;10.47;;
15603;SDS011;7902;49.042;9.092;2024-03-08T12:34:08;43.33;;;10.80;;
15603;SDS011;7902;49.042;9.092;2024-03-08T12:36:35;49.50;;;12.20;;
15603;SDS011;7902;49.042;9.092;2024-03-08T12:39:05;27.57;;;10.20;;
15603;SDS011;7902;49.042;9.092;2024-03-08T12:41:38;39.43;;;10.80;;
15603;SDS011;7902;49.042;9.092;2024-03-08T12:44:05;55.23;;;12.70;;
15603;SDS011;7902;49.042;9.092;2024-03-08T12:46:33;29.00;;;11.37;;
15603;SDS011;7902;49.042;9.092;2024-03-08T12:49:00;26.77;;;10.47;;
15603;SDS011;7902;49.042;9.092;2024-03-08T12:51:26;28.27;;;12.50;;
15603;SDS011;7902;49.042;9.092;2024-03-08T12:53:55;29.67;;;10.80;;
15603;SDS011;7902;49.042;9.092;2024-03-08T12:56:39;38.27;;;11.83;;
15603;SDS011;7902;49.042;9.092;2024-03-08T12:59:06;30.43;;;11.10;;
15603;SDS011;7902;49.042;9.092;2024-03-08T13:01:33;27.83;;;11.07;;
15603;SDS011;7902;49.042;9.092;2024-03-08T13:04:03;29.90;;;12.40;;
15603;SDS011;7902;49.042;9.092;2024-03-08T13:06:31;31.90;;;12.00;;
15603;SDS011;7902;49.042;9.092;2024-03-08T13:08:58;35.10;;;11.43;;
15603;SDS011;7902;49.042;9.092;2024-03-08T13:11:24;37.30;;;11.63;;
15603;SDS011;7902;49.042;9.092;2024-03-08T13:13:51;32.80;;;11.80;;
15603;SDS011;7902;49.042;9.092;2024-03-08T13:16:18;59.63;;;12.80;;
15603;SDS011;7902;49.042;9.092;2024-03-08T13:18:47;37.83;;;12.23;;
15603;SDS011;7902;49.042;9.092;2024-03-08T13:21:16;38.20;;;13.37;;
15603;SDS011;7902;49.042;9.092;2024-03-08T13:23:45;29.13;;;11.40;;
15603;SDS011;7902;49.042;9.092;2024-03-08T13:26:15;30.87;;;11.73;;
15603;SDS011;7902;49.042;9.092;2024-03-08T13:28:48;49.93;;;12.20;;
15603;SDS011;7902;49.042;9.092;2024-03-08T13:31:17;34.73;;;11.43;;
15603;SDS011;7902;49.042;9.092;2024-03-08T13:33:44;33.40;;;12.60;;
15603;SDS011;7902;49.042;9.092;2024-03-08T13:36:12;34.40;;;11.17;;
15603;SDS011;7902;49.042;9.092;2024-03-08T13:38:43;77.53;;;13.10;;
15603;SDS011;7902;49.042;9.092;2024-03-08T13:41:10;51.37;;;11.77;;
15603;SDS011;7902;49.042;9.092;2024-03-08T13:43:37;53.50;;;12.83;;
15603;SDS011;7902;49.042;9.092;2024-03-08T13:46:05;56.77;;;13.13;;
15603;SDS011;7902;49.042;9.092;2024-03-08T13:48:33;44.10;;;13.13;;
15603;SDS011;7902;49.042;9.092;2024-03-08T13:50:59;80.60;;;15.10;;
15603;SDS011;7902;49.042;9.092;2024-03-08T13:53:26;43.17;;;12.30;;
15603;SDS011;7902;49.042;9.092;2024-03-08T13:55:52;42.90;;;13.50;;
15603;SDS011;7902;49.042;9.092;2024-03-08T13:58:18;84.40;;;15.20;;
15603;SDS011;7902;49.042;9.092;2024-03-08T14:00:46;41.53;;;12.47;;
15603;SDS011;7902;49.042;9.092;2024-03-08T14:03:13;57.63;;;13.57;;
15603;SDS011;7902;49.042;9.092;2024-03-08T14:05:39;41.03;;;12.97;;
15603;SDS011;7902;49.042;9.092;2024-03-08T14:08:07;38.07;;;12.63;;
15603;SDS011;7902;49.042;9.092;2024-03-08T14:10:33;103.07;;;15.80;;
15603;SDS011;7902;49.042;9.092;2024-03-08T14:13:00;50.53;;;14.07;;
15603;SDS011;7902;49.042;9.092;2024-03-08T14:15:28;59.67;;;13.03;;
15603;SDS011;7902;49.042;9.092;2024-03-08T14:17:55;104.53;;;15.70;;
15603;SDS011;7902;49.042;9.092;2024-03-08T14:20:23;101.23;;;14.80;;
15603;SDS011;7902;49.042;9.092;2024-03-08T14:22:53;51.60;;;13.47;;
15603;SDS011;7902;49.042;9.092;2024-03-08T14:25:20;102.37;;;15.17;;
15603;SDS011;7902;49.042;9.092;2024-03-08T14:27:49;41.03;;;13.60;;
15603;SDS011;7902;49.042;9.092;2024-03-08T14:30:19;49.23;;;13.77;;
15603;SDS011;7902;49.042;9.092;2024-03-08T14:33:03;42.00;;;12.70;;
15603;SDS011;7902;49.042;9.092;2024-03-08T14:35:31;55.53;;;13.50;;
15603;SDS011;7902;49.042;9.092;2024-03-08T14:37:57;56.13;;;13.13;;
15603;SDS011;7902;49.042;9.092;2024-03-08T14:40:26;48.03;;;13.43;;
15603;SDS011;7902;49.042;9.092;2024-03-08T14:42:52;60.43;;;12.43;;